Time;durP1;ratioP1;P1;durP2;ratioP2;P2;SDS_P1;SDS_P2;PMS_P1;PMS_P2;Temp;Humidity;BMP_temperature;BMP_pressure;BME280_temperature;BME280_humidity;BME280_pressure;Samples;Min_cycle;Max_cycle;Signal;HPM_P1;HPM_P2
2023/04/15 00:00:58;;;;;;;15.45;10.48;;;;;;;8.51;98.53;98664.19;5092549;28;20023;-79
2023/04/15 00:03:24;;;;;;;17.83;10.13;;;;;;;8.48;98.79;98661.22;5093780;28;20078;-79
2023/04/15 00:05:49;;;;;;;14.77;10.27;;;;;;;8.24;98.17;98663.56;5110431;28;20502;-79
2023/04/15 00:08:15;;;;;;;10.50;8.68;;;;;;;8.26;98.66;98650.09;5111570;28;20027;-79
2023/04/15 00:10:43;;;;;;;12.50;8.88;;;;;;;8.26;97.87;98661.25;5111837;28;20023;-79
2023/04/15 00:13:09;;;;;;;12.60;8.15;;;;;;;8.13;96.86;98662.31;5101319;28;20498;-79
2023/04/15 00:15:34;;;;;;;10.88;7.30;;;;;;;8.14;96.37;98663.94;5103454;28;20102;-80
2023/04/15 00:18:00;;;;;;;11.93;8.38;;;;;;;8.15;96.32;98665.59;5102372;28;20419;-79
2023/04/15 00:20:25;;;;;;;9.43;7.97;;;;;;;8.14;95.91;98655.59;5101570;28;20096;-79
2023/04/15 00:22:51;;;;;;;13.30;9.07;;;;;;;8.31;95.67;98660.22;5103693;28;20020;-79
2023/04/15 00:25:16;;;;;;;13.18;7.72;;;;;;;8.47;94.27;98663.22;5089953;28;20034;-79
2023/04/15 00:27:42;;;;;;;10.55;8.27;;;;;;;8.62;93.03;98663.78;5103421;28;20043;-79
2023/04/15 00:30:08;;;;;;;12.90;7.05;;;;;;;8.67;91.32;98657.97;5111478;28;20015;-79
2023/04/15 00:32:34;;;;;;;23.08;9.20;;;;;;;8.59;90.82;98656.09;5106905;28;20023;-79
2023/04/15 00:34:59;;;;;;;11.68;6.35;;;;;;;8.43;91.20;98659.47;5092137;28;20019;-78
2023/04/15 00:37:25;;;;;;;8.82;7.18;;;;;;;8.49;90.26;98652.53;5110266;28;20031;-79
2023/04/15 00:39:50;;;;;;;8.75;6.40;;;;;;;8.46;89.75;98660.75;5101622;28;20032;-79
2023/04/15 00:42:17;;;;;;;12.10;6.70;;;;;;;7.94;92.31;98663.56;5095012;28;20034;-78
2023/04/15 00:44:42;;;;;;;9.52;6.20;;;;;;;7.87;92.43;98663.31;5115400;28;20529;-79
2023/04/15 00:47:08;;;;;;;9.82;6.60;;;;;;;7.81;93.14;98667.44;5097279;28;20020;-79
2023/04/15 00:49:33;;;;;;;11.98;7.03;;;;;;;7.83;92.70;98673.47;5108053;28;20106;-79
2023/04/15 00:51:59;;;;;;;11.02;7.63;;;;;;;7.67;92.97;98678.81;5095233;28;20020;-79
2023/04/15 00:54:25;;;;;;;12.00;7.65;;;;;;;7.84;92.48;98664.78;5095001;28;20027;-79
2023/04/15 00:56:50;;;;;;;11.52;6.43;;;;;;;7.75;92.45;98664.00;5095589;28;20027;-78
2023/04/15 00:59:17;;;;;;;11.70;8.05;;;;;;;7.76;92.81;98653.72;5094889;28;20406;-79
2023/04/15 01:01:44;;;;;;;13.10;7.30;;;;;;;7.65;92.57;98658.81;5100198;28;20399;-79
2023/04/15 01:04:10;;;;;;;11.90;7.18;;;;;;;7.58;92.96;98653.78;5095665;28;20466;-79
2023/04/15 01:06:35;;;;;;;16.13;6.63;;;;;;;7.38;92.87;98647.84;5115196;28;20016;-79
2023/04/15 01:09:02;;;;;;;13.43;7.72;;;;;;;7.13;93.84;98638.44;5108692;28;20034;-80
2023/04/15 01:11:28;;;;;;;11.27;7.30;;;;;;;6.92;95.35;98630.00;5094208;28;20108;-79
2023/04/15 01:13:56;;;;;;;11.02;7.07;;;;;;;6.85;96.20;98620.19;5080317;28;20616;-79
2023/04/15 01:16:21;;;;;;;15.13;8.60;;;;;;;6.75;97.09;98628.88;5094664;28;20020;-79
2023/04/15 01:18:48;;;;;;;14.90;8.45;;;;;;;6.66;97.76;98642.78;5076127;28;20081;-79
2023/04/15 01:21:13;;;;;;;14.23;8.20;;;;;;;6.65;97.97;98648.69;5094608;28;20103;-78
2023/04/15 01:23:39;;;;;;;11.50;7.82;;;;;;;6.59;98.43;98646.06;5107375;28;20051;-78
2023/04/15 01:26:07;;;;;;;9.82;7.07;;;;;;;6.87;97.47;98659.59;5092693;28;20214;-78
2023/04/15 01:28:33;;;;;;;10.00;6.28;;;;;;;7.12;96.09;98664.59;5112248;28;20055;-79
2023/04/15 01:31:12;;;;;;;9.25;7.05;;;;;;;7.41;93.66;98677.78;5114803;28;20085;-79
2023/04/15 01:33:40;;;;;;;11.90;6.55;;;;;;;7.69;91.89;98677.31;5099895;28;20023;-79
2023/04/15 01:36:07;;;;;;;10.68;6.78;;;;;;;7.82;89.69;98677.41;5094340;28;20448;-79
2023/04/15 01:38:33;;;;;;;10.45;6.47;;;;;;;7.45;90.07;98670.38;5092883;28;20039;-79
2023/04/15 01:40:59;;;;;;;11.82;6.85;;;;;;;7.59;89.33;98674.91;5094836;28;20084;-79
2023/04/15 01:43:25;;;;;;;8.88;7.00;;;;;;;7.29;89.54;98681.22;5101892;28;20028;-78
2023/04/15 01:45:51;;;;;;;11.43;7.82;;;;;;;7.16;90.91;98687.81;5114560;28;20050;-79
2023/04/15 01:48:16;;;;;;;11.85;7.07;;;;;;;6.91;91.13;98692.31;5113304;28;20024;-78
2023/04/15 01:50:42;;;;;;;15.23;7.75;;;;;;;6.99;92.05;98694.22;5096128;28;20031;-79
2023/04/15 01:53:08;;;;;;;15.07;7.68;;;;;;;6.87;92.44;98692.94;5103596;28;20142;-78
2023/04/15 01:55:34;;;;;;;9.18;7.13;;;;;;;7.02;91.26;98690.81;5096774;28;20024;-78
2023/04/15 01:58:00;;;;;;;12.90;7.68;;;;;;;7.21;91.15;98696.00;5100618;28;20027;-78
2023/04/15 02:00:26;;;;;;;11.10;7.68;;;;;;;7.41;89.64;98693.63;5096056;28;20019;-77
2023/04/15 02:02:51;;;;;;;10.68;7.57;;;;;;;7.47;87.82;98703.44;5093297;28;20138;-78
2023/04/15 02:05:17;;;;;;;11.27;6.88;;;;;;;7.53;87.40;98707.66;5093812;28;20024;-79
2023/04/15 02:07:43;;;;;;;8.85;6.68;;;;;;;7.61;86.52;98707.97;5108635;28;20031;-79
2023/04/15 02:10:09;;;;;;;12.70;7.00;;;;;;;7.55;86.42;98719.31;5113846;28;20035;-79
2023/04/15 02:12:35;;;;;;;8.20;6.35;;;;;;;7.68;86.20;98730.56;5087582;28;20050;-79
2023/04/15 02:15:00;;;;;;;6.85;5.05;;;;;;;7.83;85.01;98734.72;5095397;28;20023;-79
2023/04/15 02:17:26;;;;;;;7.60;5.78;;;;;;;8.08;84.61;98732.97;5112714;28;20073;-79
2023/04/15 02:19:51;;;;;;;7.40;4.88;;;;;;;8.00;83.40;98711.53;5090741;28;20032;-79
2023/04/15 02:22:17;;;;;;;7.10;5.35;;;;;;;7.75;85.34;98708.56;5093425;28;20038;-79
2023/04/15 02:24:44;;;;;;;12.45;5.43;;;;;;;7.45;87.32;98700.97;5093770;28;20024;-78
2023/04/15 02:27:10;;;;;;;6.20;5.25;;;;;;;7.33;88.11;98697.28;5095361;28;20027;-78
2023/04/15 02:29:35;;;;;;;8.50;5.50;;;;;;;6.91;90.42;98698.66;5105181;28;20038;-78
2023/04/15 02:32:01;;;;;;;10.70;5.40;;;;;;;6.60;92.37;98705.25;5109156;28;20027;-79
2023/04/15 02:34:26;;;;;;;8.05;5.07;;;;;;;6.46;93.61;98700.69;5102850;28;20023;-78
2023/04/15 02:36:56;;;;;;;10.93;4.93;;;;;;;6.41;93.42;98694.47;5095531;28;20023;-79
2023/04/15 02:39:21;;;;;;;10.93;4.67;;;;;;;6.43;93.25;98703.28;5107722;28;20023;-78
2023/04/15 02:41:50;;;;;;;6.75;5.00;;;;;;;6.53;92.89;98699.34;5087120;28;20299;-79
2023/04/15 02:44:19;;;;;;;8.20;5.45;;;;;;;6.72;91.41;98702.63;5094471;28;20401;-78
2023/04/15 02:46:49;;;;;;;8.52;4.60;;;;;;;6.81;91.34;98710.13;5094992;28;20164;-79
2023/04/15 02:49:15;;;;;;;9.98;6.00;;;;;;;6.48;92.25;98722.56;5109879;28;20015;-78
2023/04/15 02:51:41;;;;;;;9.70;5.20;;;;;;;6.43;92.28;98717.97;5091629;28;20388;-78
2023/04/15 02:54:07;;;;;;;9.00;5.50;;;;;;;6.40;93.38;98728.94;5105820;28;20028;-78
2023/04/15 02:56:33;;;;;;;7.75;5.32;;;;;;;6.41;92.31;98736.94;5109465;28;20023;-79
2023/04/15 02:58:58;;;;;;;7.88;5.28;;;;;;;6.57;92.46;98733.66;5090770;28;20505;-79
2023/04/15 03:01:25;;;;;;;6.88;4.85;;;;;;;6.46;91.34;98731.25;5109411;28;20093;-78
2023/04/15 03:03:50;;;;;;;8.80;4.70;;;;;;;6.14;92.00;98726.91;5105143;28;20034;-79
2023/04/15 03:06:16;;;;;;;7.38;5.07;;;;;;;6.13;92.94;98728.06;5093044;28;20090;-79
2023/04/15 03:08:41;;;;;;;6.28;4.38;;;;;;;6.24;92.05;98714.72;5094492;28;20054;-79
2023/04/15 03:11:07;;;;;;;6.75;4.93;;;;;;;6.14;91.68;98705.53;5091884;28;20077;-78
2023/04/15 03:13:32;;;;;;;8.30;4.63;;;;;;;6.17;91.68;98710.44;5092735;28;20031;-78
2023/04/15 03:15:58;;;;;;;6.68;4.32;;;;;;;6.05;92.17;98704.69;5092286;28;20028;-78
2023/04/15 03:18:23;;;;;;;10.90;7.90;;;;;;;5.88;92.47;98705.44;5073907;28;20082;-79
2023/04/15 03:20:49;;;;;;;9.55;7.22;;;;;;;5.89;92.40;98718.16;5073902;28;20043;-78
2023/04/15 03:23:15;;;;;;;9.25;6.30;;;;;;;5.74;92.60;98730.56;5090392;28;20067;-79
2023/04/15 03:25:40;;;;;;;10.65;6.22;;;;;;;5.65;92.79;98735.25;5111578;28;20019;-78
2023/04/15 03:28:06;;;;;;;8.68;5.55;;;;;;;5.63;92.96;98738.34;5074110;28;20028;-78
2023/04/15 03:30:31;;;;;;;13.27;6.90;;;;;;;5.69;92.16;98745.38;5106378;28;20039;-78
2023/04/15 03:32:57;;;;;;;12.25;5.88;;;;;;;5.78;91.33;98747.34;5092689;28;20518;-78
2023/04/15 03:35:23;;;;;;;8.07;5.75;;;;;;;5.75;91.71;98766.28;5094020;28;20020;-78
2023/04/15 03:37:48;;;;;;;9.38;5.40;;;;;;;5.82;90.73;98771.38;5112325;28;20394;-78
2023/04/15 03:40:14;;;;;;;17.77;7.43;;;;;;;5.69;90.82;98770.38;5110012;28;20436;-78
2023/04/15 03:42:40;;;;;;;8.55;6.57;;;;;;;5.82;90.80;98785.25;5091707;28;20404;-79
2023/04/15 03:45:06;;;;;;;11.23;6.47;;;;;;;5.69;90.90;98772.31;5112165;28;20082;-78
2023/04/15 03:47:32;;;;;;;12.50;7.78;;;;;;;5.58;91.14;98771.78;5093134;28;20505;-78
2023/04/15 03:49:57;;;;;;;16.33;9.13;;;;;;;5.56;90.74;98765.72;5106339;28;20024;-78
2023/04/15 03:52:22;;;;;;;15.23;7.70;;;;;;;5.69;89.60;98780.63;5092567;28;20042;-78
2023/04/15 03:54:48;;;;;;;10.18;7.65;;;;;;;5.73;89.63;98781.63;5112140;28;20053;-79
2023/04/15 03:57:13;;;;;;;10.27;7.45;;;;;;;5.80;89.60;98784.75;5102207;28;20487;-78
2023/04/15 03:59:39;;;;;;;7.10;5.65;;;;;;;5.87;88.48;98781.53;5090299;28;20475;-78
2023/04/15 04:02:05;;;;;;;9.27;6.22;;;;;;;5.78;88.17;98784.28;5092375;28;20379;-78
2023/04/15 04:04:31;;;;;;;11.13;6.60;;;;;;;5.59;88.75;98795.59;5091203;28;20034;-78
2023/04/15 04:06:56;;;;;;;11.27;6.90;;;;;;;5.39;89.64;98795.00;5080056;28;20020;-78
2023/04/15 04:09:22;;;;;;;11.35;7.88;;;;;;;5.26;90.90;98787.56;5073261;28;20190;-78
2023/04/15 04:11:47;;;;;;;16.52;7.15;;;;;;;5.39;90.84;98795.00;5091885;28;20055;-78
2023/04/15 04:14:13;;;;;;;11.30;7.93;;;;;;;5.42;90.91;98780.47;5110820;28;20019;-78
2023/04/15 04:16:38;;;;;;;15.45;8.70;;;;;;;5.43;90.93;98784.91;5110075;28;20027;-78
2023/04/15 04:19:03;;;;;;;19.58;11.50;;;;;;;5.49;90.92;98791.16;5088394;28;20497;-78
2023/04/15 04:21:29;;;;;;;16.40;7.78;;;;;;;5.46;90.74;98792.59;5108753;28;20444;-78
2023/04/15 04:23:55;;;;;;;12.10;7.22;;;;;;;5.72;89.90;98797.47;5101351;28;20386;-78
2023/04/15 04:26:21;;;;;;;16.17;7.88;;;;;;;5.78;89.41;98802.88;5093148;28;20030;-78
2023/04/15 04:28:47;;;;;;;13.32;6.57;;;;;;;5.89;89.38;98795.91;5091702;28;20020;-78
2023/04/15 04:31:12;;;;;;;10.43;6.57;;;;;;;6.19;88.42;98796.22;5102353;28;20031;-78
2023/04/15 04:33:38;;;;;;;12.32;7.63;;;;;;;6.41;87.99;98798.06;5103058;28;20088;-78
2023/04/15 04:36:04;;;;;;;10.25;6.15;;;;;;;6.59;86.54;98798.91;5076927;28;20106;-79
2023/04/15 04:38:29;;;;;;;8.05;5.30;;;;;;;6.64;85.89;98809.03;5091097;28;20024;-78
2023/04/15 04:40:55;;;;;;;8.40;5.22;;;;;;;6.77;85.13;98804.50;5100366;28;20489;-79
2023/04/15 04:43:20;;;;;;;10.48;5.68;;;;;;;6.84;84.84;98821.50;5111150;28;20023;-78
2023/04/15 04:45:46;;;;;;;10.60;5.78;;;;;;;7.02;84.02;98827.88;5110111;28;20440;-79
2023/04/15 04:48:11;;;;;;;12.63;8.93;;;;;;;7.16;84.04;98822.16;5107944;28;20028;-79
2023/04/15 04:50:37;;;;;;;23.10;10.30;;;;;;;7.26;83.96;98828.53;5103009;28;20031;-75
2023/04/15 04:53:02;;;;;;;19.65;12.00;;;;;;;7.35;83.47;98836.88;5108658;28;20023;-79
2023/04/15 04:55:28;;;;;;;14.60;8.77;;;;;;;7.46;83.20;98829.81;5092698;28;20485;-75
2023/04/15 04:57:53;;;;;;;13.27;7.28;;;;;;;7.56;82.91;98828.63;5085715;28;20049;-77
2023/04/15 05:00:19;;;;;;;22.20;9.85;;;;;;;7.76;83.29;98821.53;5078265;28;20464;-75
2023/04/15 05:02:44;;;;;;;17.17;8.50;;;;;;;8.13;81.68;98819.13;5092371;28;20038;-75
2023/04/15 05:05:13;;;;;;;71.45;35.10;;;;;;;7.94;82.02;98822.31;5097468;28;20779;-75
2023/04/15 05:07:39;;;;;;;19.08;7.85;;;;;;;7.73;83.13;98827.78;5095654;28;20059;-78
2023/04/15 05:10:05;;;;;;;10.25;5.95;;;;;;;7.68;83.87;98823.22;5087284;28;20483;-73
2023/04/15 05:12:31;;;;;;;14.73;6.03;;;;;;;7.82;82.12;98827.75;5103433;28;20047;-76
2023/04/15 05:14:56;;;;;;;12.18;7.72;;;;;;;8.06;82.89;98820.78;5092325;28;20020;-75
2023/04/15 05:17:22;;;;;;;11.50;8.70;;;;;;;8.63;81.38;98829.88;5101155;28;20516;-71
2023/04/15 05:19:47;;;;;;;29.70;16.55;;;;;;;8.79;81.26;98833.69;5098149;28;20031;-76
2023/04/15 05:22:13;;;;;;;93.20;8.07;;;;;;;8.68;80.22;98838.88;5090346;28;20050;-74
2023/04/15 05:24:38;;;;;;;8.88;4.78;;;;;;;8.82;80.07;98837.78;5110558;28;20015;-70
2023/04/15 05:27:04;;;;;;;11.60;4.30;;;;;;;8.98;78.90;98846.38;5083360;28;20031;-72
2023/04/15 05:29:30;;;;;;;8.75;4.75;;;;;;;8.92;78.62;98853.28;5103688;28;20474;-70
2023/04/15 05:31:55;;;;;;;11.68;5.13;;;;;;;8.78;80.09;98854.38;5111469;27;20028;-76
2023/04/15 05:34:21;;;;;;;10.93;6.95;;;;;;;8.89;79.86;98856.78;5089792;28;20049;-74
2023/04/15 05:36:47;;;;;;;11.30;6.00;;;;;;;9.02;78.85;98858.47;5092727;28;20028;-75
2023/04/15 05:39:12;;;;;;;7.70;4.30;;;;;;;9.45;77.23;98856.47;5114604;28;20019;-75
2023/04/15 05:41:38;;;;;;;7.78;4.18;;;;;;;9.36;77.62;98862.16;5114470;28;20475;-75
2023/04/15 05:44:03;;;;;;;10.35;7.15;;;;;;;9.53;79.35;98861.19;5095272;28;20024;-75
2023/04/15 05:46:29;;;;;;;7.15;5.05;;;;;;;9.53;77.95;98866.75;5085279;28;20027;-73
2023/04/15 05:48:54;;;;;;;22.25;13.77;;;;;;;9.93;77.86;98868.19;5109874;28;20012;-72
2023/04/15 05:51:20;;;;;;;43.85;28.00;;;;;;;10.21;76.24;98877.91;5090825;28;20422;-74
2023/04/15 05:53:45;;;;;;;15.55;11.02;;;;;;;10.55;74.35;98881.44;5095644;28;20055;-77
2023/04/15 05:56:11;;;;;;;8.52;6.82;;;;;;;10.55;74.94;98887.03;5111334;28;20027;-80
2023/04/15 05:58:36;;;;;;;8.23;5.45;;;;;;;10.63;73.64;98888.91;5102090;28;20020;-74
2023/04/15 06:01:02;;;;;;;14.63;7.43;;;;;;;10.66;72.35;98898.56;5101390;28;20105;-81
2023/04/15 06:03:28;;;;;;;13.57;6.80;;;;;;;10.57;73.73;98892.28;5104008;28;20403;-73
2023/04/15 06:05:54;;;;;;;11.52;4.97;;;;;;;10.87;72.43;98892.03;5101276;27;20053;-74
2023/04/15 06:08:20;;;;;;;12.73;5.15;;;;;;;11.15;72.72;98900.50;5100063;28;20112;-75
2023/04/15 06:10:45;;;;;;;8.30;5.20;;;;;;;11.41;71.82;98904.88;5094310;28;20114;-73
2023/04/15 06:13:11;;;;;;;7.88;3.42;;;;;;;11.74;70.53;98900.22;5111036;28;20126;-77
2023/04/15 06:15:37;;;;;;;7.13;4.57;;;;;;;11.88;71.71;98889.41;5079260;28;20392;-74
2023/04/15 06:18:02;;;;;;;10.10;5.05;;;;;;;11.75;72.12;98902.63;5100224;28;20020;-75
2023/04/15 06:20:28;;;;;;;14.65;6.78;;;;;;;11.75;73.52;98896.22;5111248;27;20055;-75
2023/04/15 06:22:53;;;;;;;6.88;5.50;;;;;;;11.94;73.44;98887.97;5098540;27;20020;-76
2023/04/15 06:25:19;;;;;;;51.30;23.30;;;;;;;12.15;73.65;98895.34;5102787;28;20024;-73
2023/04/15 06:27:44;;;;;;;103.63;47.13;;;;;;;12.16;73.30;98893.38;5089345;28;20111;-74
2023/04/15 06:30:10;;;;;;;33.85;15.73;;;;;;;11.85;74.27;98900.50;5107501;27;20077;-75
2023/04/15 06:32:36;;;;;;;47.90;20.05;;;;;;;11.94;76.20;98893.59;5079299;28;20027;-77
2023/04/15 06:35:02;;;;;;;35.35;11.25;;;;;;;11.78;76.21;98899.16;5088926;28;20106;-77
2023/04/15 06:37:28;;;;;;;62.33;24.85;;;;;;;12.23;76.87;98901.94;5102871;28;20023;-77
2023/04/15 06:39:53;;;;;;;66.30;32.05;;;;;;;12.61;75.18;98902.50;5090255;28;20383;-74
2023/04/15 06:42:19;;;;;;;30.35;13.68;;;;;;;12.87;74.12;98896.34;5101199;27;20032;-75
2023/04/15 06:44:44;;;;;;;21.67;9.82;;;;;;;13.11;75.23;98893.66;5096339;28;20050;-76
2023/04/15 06:47:11;;;;;;;11.27;6.38;;;;;;;12.99;74.28;98901.00;5089275;28;20136;-76
2023/04/15 06:49:37;;;;;;;15.15;8.65;;;;;;;12.92;76.53;98901.66;5110803;28;20066;-76
2023/04/15 06:52:04;;;;;;;19.08;10.35;;;;;;;12.98;77.25;98910.63;5104745;27;20046;-75
2023/04/15 06:54:29;;;;;;;10.45;6.38;;;;;;;12.88;78.44;98906.38;5094072;27;20023;-76
2023/04/15 06:56:55;;;;;;;10.95;7.25;;;;;;;13.54;76.24;98908.69;5096911;27;20020;-75
2023/04/15 06:59:20;;;;;;;9.98;6.68;;;;;;;13.83;74.05;98908.47;5097352;27;20514;-73
2023/04/15 07:01:46;;;;;;;16.90;9.73;;;;;;;13.28;75.92;98907.28;5086874;28;20437;-74
2023/04/15 07:04:12;;;;;;;20.42;13.30;;;;;;;13.20;77.35;98906.31;5099386;28;20024;-74
2023/04/15 07:06:37;;;;;;;25.58;10.63;;;;;;;13.94;74.96;98906.69;5087744;27;20038;-74
2023/04/15 07:09:04;;;;;;;22.63;7.47;;;;;;;13.66;76.23;98909.72;5102301;28;20161;-76
2023/04/15 07:11:29;;;;;;;12.82;7.00;;;;;;;13.82;76.32;98910.44;5090225;28;20134;-76
2023/04/15 07:13:56;;;;;;;15.57;6.40;;;;;;;13.28;77.42;98907.28;5109695;27;20466;-76
2023/04/15 07:16:21;;;;;;;12.75;5.22;;;;;;;13.86;75.84;98910.53;5083520;28;20024;-74
2023/04/15 07:18:47;;;;;;;10.82;5.03;;;;;;;14.30;75.10;98912.97;5103969;28;20513;-73
2023/04/15 07:21:12;;;;;;;7.88;5.40;;;;;;;14.10;74.48;98902.94;5112255;28;20043;-74
2023/04/15 07:23:38;;;;;;;8.90;6.00;;;;;;;14.28;73.05;98908.91;5101212;28;20040;-75
2023/04/15 07:26:04;;;;;;;24.05;6.65;;;;;;;14.13;74.61;98903.03;5101418;28;20570;-72
2023/04/15 07:28:29;;;;;;;14.88;6.00;;;;;;;14.09;74.76;98919.00;5076192;28;20028;-72
2023/04/15 07:30:56;;;;;;;11.27;6.25;;;;;;;14.57;73.04;98926.28;5098378;28;20032;-72
2023/04/15 07:33:22;;;;;;;12.02;6.18;;;;;;;14.83;71.99;98913.47;5093230;28;20032;-73
2023/04/15 07:35:47;;;;;;;14.55;6.35;;;;;;;15.04;70.28;98910.19;5098740;28;20559;-72
2023/04/15 07:38:13;;;;;;;9.82;5.93;;;;;;;14.38;72.40;98916.72;5094212;28;20076;-72
2023/04/15 07:40:39;;;;;;;17.77;6.45;;;;;;;14.60;72.15;98914.28;5093141;28;20065;-74
2023/04/15 07:43:05;;;;;;;11.73;5.82;;;;;;;14.68;71.62;98924.47;5091587;28;20021;-69
2023/04/15 07:45:31;;;;;;;12.98;6.05;;;;;;;14.59;71.24;98915.44;5094983;28;20024;-73
2023/04/15 07:47:56;;;;;;;10.82;7.10;;;;;;;14.68;72.90;98918.84;5081065;28;20122;-72
2023/04/15 07:50:22;;;;;;;14.75;8.35;;;;;;;15.02;71.46;98909.72;5096631;28;20111;-72
2023/04/15 07:52:49;;;;;;;32.80;12.52;;;;;;;15.26;71.31;98919.75;5092984;28;20024;-72
2023/04/15 07:55:18;;;;;;;16.27;8.10;;;;;;;15.76;68.41;98923.66;5109891;28;20623;-72
2023/04/15 07:57:43;;;;;;;12.57;8.38;;;;;;;15.88;68.65;98926.22;5095826;28;20493;-72
2023/04/15 08:00:10;;;;;;;8.73;5.90;;;;;;;15.85;66.92;98919.31;5088158;28;20027;-72
2023/04/15 08:02:36;;;;;;;17.23;7.78;;;;;;;16.07;66.97;98918.78;5111374;28;20050;-72
2023/04/15 08:05:03;;;;;;;13.13;7.15;;;;;;;16.17;65.86;98925.72;5102324;28;20085;-72
2023/04/15 08:07:28;;;;;;;10.00;6.20;;;;;;;16.45;64.71;98915.97;5090025;28;20019;-72
2023/04/15 08:09:54;;;;;;;10.35;6.22;;;;;;;16.13;66.00;98918.06;5086021;28;20032;-72
2023/04/15 08:12:19;;;;;;;11.98;8.15;;;;;;;16.24;66.39;98920.19;5087367;28;20044;-72
2023/04/15 08:14:45;;;;;;;14.68;8.20;;;;;;;15.92;67.10;98906.53;5090360;27;20105;-72
2023/04/15 08:17:11;;;;;;;12.50;8.50;;;;;;;15.90;68.31;98904.09;5103479;28;20471;-73
2023/04/15 08:19:36;;;;;;;16.02;9.32;;;;;;;15.75;69.50;98908.72;5107230;28;20081;-72
2023/04/15 08:22:05;;;;;;;14.85;7.00;;;;;;;15.85;67.76;98901.59;5071951;28;20028;-72
2023/04/15 08:24:31;;;;;;;12.80;6.25;;;;;;;16.81;65.55;98902.16;5081410;28;20059;-77
2023/04/15 08:26:56;;;;;;;10.40;5.68;;;;;;;16.51;62.78;98906.75;5087998;28;20063;-75
2023/04/15 08:29:22;;;;;;;9.05;6.13;;;;;;;16.83;62.36;98900.56;5089715;28;20023;-75
2023/04/15 08:31:48;;;;;;;27.67;6.60;;;;;;;16.82;62.11;98895.31;5091225;28;20510;-73
2023/04/15 08:34:14;;;;;;;13.48;5.90;;;;;;;16.44;61.91;98878.44;5095463;28;20027;-71
2023/04/15 08:36:40;;;;;;;13.93;7.47;;;;;;;16.58;64.02;98894.69;5092423;28;20020;-73
2023/04/15 08:39:06;;;;;;;10.52;6.30;;;;;;;17.08;62.12;98887.84;5089229;28;20655;-75
2023/04/15 08:41:45;;;;;;;18.10;6.95;;;;;;;16.95;63.33;98884.47;5095158;28;20020;-73
2023/04/15 08:44:12;;;;;;;;;;;;;;;16.75;60.12;98895.22;5092177;28;20048;-74
2023/04/15 08:46:38;;;;;;;6.90;5.35;;;;;;;16.92;62.07;98886.09;5099795;28;19918;-74
2023/04/15 08:49:04;;;;;;;12.82;5.38;;;;;;;16.74;61.06;98896.44;5094100;28;20471;-74
2023/04/15 08:51:30;;;;;;;12.45;6.13;;;;;;;17.29;59.77;98897.66;5101879;28;20104;-72
2023/04/15 08:53:56;;;;;;;13.82;5.57;;;;;;;17.87;56.79;98900.78;5078570;28;20036;-69
2023/04/15 08:56:25;;;;;;;9.23;5.32;;;;;;;18.49;55.29;98904.56;5079364;28;20032;-70
2023/04/15 08:58:52;;;;;;;9.93;5.95;;;;;;;18.46;54.94;98896.84;5092511;28;20068;-72
2023/04/15 09:01:18;;;;;;;6.60;5.20;;;;;;;18.73;55.09;98896.50;5090886;28;20081;-72
2023/04/15 09:03:44;;;;;;;7.78;4.60;;;;;;;18.48;56.12;98886.75;5095254;28;20456;-69
2023/04/15 09:06:10;;;;;;;9.80;5.65;;;;;;;18.27;53.57;98887.56;5095041;28;20517;-72
2023/04/15 09:08:36;;;;;;;9.57;5.40;;;;;;;18.17;55.94;98877.00;5094983;27;20028;-73
2023/04/15 09:11:04;;;;;;;9.25;5.20;;;;;;;18.63;56.95;98876.25;5083724;28;20035;-71
2023/04/15 09:13:30;;;;;;;8.40;5.38;;;;;;;20.04;53.83;98880.78;5094009;28;20063;-70
2023/04/15 09:15:57;;;;;;;12.27;5.65;;;;;;;21.00;52.28;98881.72;5096229;28;20055;-73
2023/04/15 09:18:33;;;;;;;16.27;6.25;;;;;;;21.57;50.04;98874.59;5100469;27;20044;-72
2023/04/15 09:21:07;;;;;;;12.52;5.40;;;;;;;21.65;49.10;98881.00;5097446;28;20491;-75
2023/04/15 09:23:34;;;;;;;7.82;4.88;;;;;;;21.76;46.45;98871.56;5101837;27;20212;-73
2023/04/15 09:26:01;;;;;;;10.30;5.80;;;;;;;20.90;45.93;98881.41;5096056;28;20380;-74
2023/04/15 09:28:28;;;;;;;11.95;4.90;;;;;;;21.45;47.01;98883.69;5095932;27;20024;-73
2023/04/15 09:31:00;;;;;;;15.13;5.53;;;;;;;21.65;42.99;98883.03;5099829;28;20387;-71
2023/04/15 09:33:28;;;;;;;23.67;7.53;;;;;;;21.65;45.43;98881.00;5103438;28;20016;-74
2023/04/15 09:36:04;;;;;;;8.52;6.18;;;;;;;21.53;47.07;98873.03;5100564;28;20119;-73
2023/04/15 09:38:31;;;;;;;16.30;5.30;;;;;;;21.50;46.33;98876.72;5095727;28;20024;-74
2023/04/15 09:40:57;;;;;;;7.47;4.53;;;;;;;21.52;41.56;98875.06;5093476;28;20522;-73
2023/04/15 09:43:37;;;;;;;11.75;3.17;;;;;;;20.32;40.71;98873.31;5088309;28;20409;-75
2023/04/15 09:46:03;;;;;;;8.30;4.30;;;;;;;20.31;47.11;98863.19;5112216;28;20035;-73
2023/04/15 09:48:30;;;;;;;7.63;4.47;;;;;;;20.99;46.49;98858.16;5103463;27;20035;-75
2023/04/15 09:50:59;;;;;;;10.15;4.28;;;;;;;20.53;43.37;98859.34;5085978;27;20087;-72
2023/04/15 09:53:25;;;;;;;11.55;4.75;;;;;;;21.32;44.94;98866.34;5100984;27;20521;-74
2023/04/15 09:55:56;;;;;;;11.98;4.32;;;;;;;21.92;44.48;98854.66;5094402;28;20036;-72
2023/04/15 09:58:29;;;;;;;4.57;3.53;;;;;;;22.43;41.92;98859.59;5094721;28;20538;-73
2023/04/15 10:00:56;;;;;;;7.80;3.30;;;;;;;22.46;39.58;98858.78;5094422;28;20028;-76
2023/04/15 10:03:24;;;;;;;12.10;3.85;;;;;;;22.40;40.48;98860.47;5095013;27;20499;-75
2023/04/15 10:05:52;;;;;;;10.18;5.15;;;;;;;22.46;41.85;98855.91;5083719;27;20054;-73
2023/04/15 10:08:20;;;;;;;5.40;3.50;;;;;;;22.56;41.11;98843.56;5105076;27;20035;-72
2023/04/15 10:10:47;;;;;;;7.03;3.85;;;;;;;22.62;38.62;98849.56;5106893;28;20098;-73
2023/04/15 10:13:16;;;;;;;7.28;3.40;;;;;;;22.04;40.67;98853.28;5075123;28;20501;-75
2023/04/15 10:15:44;;;;;;;8.90;4.10;;;;;;;22.41;41.65;98845.00;5092267;28;20110;-71
2023/04/15 10:18:12;;;;;;;6.65;3.08;;;;;;;22.73;41.98;98843.69;5082316;28;20031;-74
2023/04/15 10:20:39;;;;;;;6.15;3.72;;;;;;;22.01;37.32;98834.19;5076710;28;20117;-75
2023/04/15 10:23:05;;;;;;;5.45;3.10;;;;;;;22.01;38.16;98840.72;5099638;28;20442;-74
2023/04/15 10:25:32;;;;;;;5.82;3.08;;;;;;;22.16;42.16;98832.78;5095565;27;20030;-75
2023/04/15 10:27:59;;;;;;;5.40;3.50;;;;;;;22.33;37.69;98838.63;5096558;28;20114;-74
2023/04/15 10:30:25;;;;;;;13.10;3.58;;;;;;;22.15;40.89;98834.00;5100131;28;20028;-73
2023/04/15 10:32:51;;;;;;;5.03;3.22;;;;;;;22.20;40.34;98824.16;5097580;28;20085;-72
2023/04/15 10:35:17;;;;;;;4.78;3.80;;;;;;;22.04;41.03;98815.47;5094485;28;20479;-75
2023/04/15 10:37:43;;;;;;;7.63;3.95;;;;;;;21.95;40.01;98818.84;5098341;28;20078;-73
2023/04/15 10:40:34;;;;;;;9.18;5.03;;;;;;;21.98;41.93;98818.81;5099277;28;20498;-74
2023/04/15 10:43:01;;;;;;;7.43;3.65;;;;;;;22.47;42.32;98811.94;5096635;27;20530;-71
2023/04/15 10:45:36;;;;;;;17.25;3.25;;;;;;;22.42;38.58;98810.38;5105600;28;20599;-73
2023/04/15 10:48:05;;;;;;;27.50;4.80;;;;;;;22.52;40.94;98808.63;5097142;28;20032;-72
2023/04/15 10:50:31;;;;;;;4.50;2.67;;;;;;;22.46;38.15;98806.66;5106411;28;20099;-72
2023/04/15 10:52:57;;;;;;;12.00;3.78;;;;;;;22.34;37.72;98816.66;5098145;28;20032;-74
2023/04/15 10:55:30;;;;;;;7.10;3.42;;;;;;;22.05;40.60;98811.38;5105077;28;20046;-72
2023/04/15 10:58:00;;;;;;;4.55;3.00;;;;;;;22.04;35.40;98812.63;5101352;28;20047;-72
2023/04/15 11:00:27;;;;;;;;;;;;;;;22.23;37.73;98809.06;5083049;28;20107;-72
2023/04/15 11:02:58;;;;;;;3.95;2.15;;;;;;;22.04;37.07;98806.91;5079247;28;19967;-72
2023/04/15 11:05:42;;;;;;;7.53;2.33;;;;;;;22.27;33.77;98798.41;5097899;28;20061;-72
2023/04/15 11:08:08;;;;;;;8.68;2.40;;;;;;;22.63;33.80;98793.38;5096373;28;20039;-72
2023/04/15 11:10:34;;;;;;;6.78;2.47;;;;;;;22.45;32.35;98788.78;5098416;28;20391;-72
2023/04/15 11:13:13;;;;;;;9.55;2.83;;;;;;;22.11;34.73;98799.06;5098407;28;20066;-72
2023/04/15 11:15:46;;;;;;;7.70;2.97;;;;;;;22.42;36.23;98796.16;5083359;28;20024;-73
2023/04/15 11:18:27;;;;;;;5.75;2.17;;;;;;;22.85;34.25;98800.31;5108983;28;20016;-74
2023/04/15 11:21:00;;;;;;;6.25;2.55;;;;;;;22.25;34.15;98798.06;5101383;28;20019;-73
2023/04/15 11:23:38;;;;;;;5.43;2.63;;;;;;;22.33;32.26;98787.34;5100788;28;20050;-71
2023/04/15 11:26:10;;;;;;;13.00;2.70;;;;;;;22.28;34.17;98796.38;5098395;28;20081;-75
2023/04/15 11:28:38;;;;;;;9.48;2.67;;;;;;;21.77;34.29;98802.03;5074602;28;20511;-69